Terminal Aerodrome Forecast
Issued by NWS Tuscon, AZ

Home | Current Version | Previous Version | Text Only | Print | Product List | Glossary On
Versions: 1 2 3 4 5 6 7 8 9 10 11 12
982
FTUS45 KTWC 091720
TAFDUG
TAF
KDUG 091720Z 0918/1018 VRB03KT P6SM SCT220
     FM092200 08006KT P6SM BKN220
     FM100700 VRB04KT P6SM BKN220=

USA.gov is the U.S. government's official web portal to all federal, state and local government web resources and services.